Terminal Aerodrome Forecast
Issued by NWS Mt. Holly, NJ

Home | Current Version | Previous Version | Text Only | Print | Product List | Glossary On
Versions: 1 2 3 4 5 6 7 8 9 10 11 12 13 14 15
000
FTAK31 PANC 191306 AAA
TAFABE
TAF AMD
PABE 191306Z 1913/2012 VRB05KT 4SM BR SCT002 OVC060
      TEMPO 1913/1915 1SM BR BKN002
     FM191500 03007KT P6SM VCFG SCT040 BKN080=

USA.gov is the U.S. government's official web portal to all federal, state and local government web resources and services.